Time,TemperatureF,DewpointF,PressureIn,WindDirection,WindDirectionDegrees,WindSpeedMPH,WindSpeedGustMPH,Humidity,HourlyPrecipIn,Conditions,Clouds,dailyrainin,SoftwareType,DateUTC
2013-01-01 00:02:00,41.0,41.0,-100.00,SSE,164,0.0,-999.0,98,0.00,,,-99.99,,2013-01-01 08:02:00,
2013-01-01 00:11:00,41.0,41.0,-100.00,SSE,164,0.0,-999.0,98,0.00,,,-99.99,,2013-01-01 08:11:00,
2013-01-01 00:22:00,41.0,41.0,-100.00,SSE,164,0.0,-999.0,98,0.00,,,-99.99,,2013-01-01 08:22:00,
2013-01-01 00:30:00,40.0,40.0,-100.00,North,-999,0.0,-999.0,98,0.01,,,-99.99,,2013-01-01 08:30:00,
2013-01-01 00:53:00,40.0,40.0,-100.00,North,-999,0.0,-999.0,98,0.01,,,-99.99,,2013-01-01 08:53:00,
2013-01-01 01:02:00,40.0,40.0,-100.00,North,-999,0.0,-999.0,98,0.01,,,-99.99,,2013-01-01 09:02:00,
2013-01-01 01:11:00,40.0,40.0,-100.00,North,-999,0.0,-999.0,98,0.01,,,-99.99,,2013-01-01 09:11:00,
2013-01-01 01:22:00,40.0,40.0,-100.00,North,-999,0.0,-999.0,98,0.01,,,-99.99,,2013-01-01 09:22:00,
2013-01-01 01:30:00,39.0,39.0,-100.00,North,-999,0.0,-999.0,98,0.00,,,-99.99,,2013-01-01 09:30:00,
2013-01-01 01:52:00,39.0,39.0,-100.00,North,-999,0.0,-999.0,98,0.00,,,-99.99,,2013-01-01 09:52:00,
2013-01-01 02:02:00,39.0,39.0,-100.00,North,-999,0.0,-999.0,98,0.00,,,-99.99,,2013-01-01 10:02:00,
2013-01-01 02:12:00,39.0,39.0,-100.00,North,-999,0.0,-999.0,98,0.00,,,-99.99,,2013-01-01 10:12:00,
2013-01-01 02:22:00,39.0,39.0,-100.00,North,-999,0.0,-999.0,98,0.00,,,-99.99,,2013-01-01 10:22:00,
2013-01-01 02:30:00,38.0,38.0,-100.00,North,-999,0.0,-999.0,98,0.00,,,-99.99,,2013-01-01 10:30:00,
2013-01-01 02:52:00,38.0,38.0,-100.00,North,-999,0.0,-999.0,98,0.00,,,-99.99,,2013-01-01 10:52:00,
2013-01-01 03:02:00,38.0,38.0,-100.00,North,-999,0.0,-999.0,98,0.00,,,-99.99,,2013-01-01 11:02:00,
2013-01-01 03:12:00,38.0,38.0,-100.00,North,-999,0.0,-999.0,98,0.00,,,-99.99,,2013-01-01 11:12:00,
2013-01-01 03:22:00,38.0,38.0,-100.00,North,-999,0.0,-999.0,98,0.00,,,-99.99,,2013-01-01 11:22:00,
2013-01-01 03:30:00,38.0,37.0,-100.00,North,-999,0.0,-999.0,98,0.00,,,-99.99,,2013-01-01 11:30:00,
2013-01-01 03:53:00,38.0,37.0,-100.00,North,-999,0.0,-999.0,98,0.00,,,-99.99,,2013-01-01 11:53:00,
2013-01-01 04:02:00,38.0,37.0,-100.00,North,-999,0.0,-999.0,98,0.00,,,-99.99,,2013-01-01 12:02:00,
2013-01-01 04:12:00,38.0,37.0,-100.00,North,-999,0.0,-999.0,98,0.00,,,-99.99,,2013-01-01 12:12:00,
2013-01-01 04:22:00,38.0,37.0,-100.00,North,-999,0.0,-999.0,98,0.00,,,-99.99,,2013-01-01 12:22:00,
2013-01-01 04:30:00,38.0,37.0,-100.00,North,-999,0.0,-999.0,98,0.00,,,-99.99,,2013-01-01 12:30:00,
2013-01-01 04:53:00,38.0,37.0,-100.00,North,-999,0.0,-999.0,98,0.00,,,-99.99,,2013-01-01 12:53:00,
2013-01-01 05:02:00,38.0,37.0,-100.00,North,-999,0.0,-999.0,98,0.00,,,-99.99,,2013-01-01 13:02:00,
2013-01-01 05:12:00,38.0,37.0,-100.00,North,-999,0.0,-999.0,98,0.00,,,-99.99,,2013-01-01 13:12:00,
2013-01-01 05:22:00,38.0,37.0,-100.00,North,-999,0.0,-999.0,98,0.00,,,-99.99,,2013-01-01 13:22:00,
2013-01-01 05:30:00,36.0,36.0,-100.00,North,-999,0.0,-999.0,98,0.00,,,-99.99,,2013-01-01 13:30:00,
2013-01-01 05:52:00,36.0,36.0,-100.00,North,-999,0.0,-999.0,98,0.00,,,-99.99,,2013-01-01 13:52:00,
2013-01-01 06:02:00,36.0,36.0,-100.00,North,-999,0.0,-999.0,98,0.00,,,-99.99,,2013-01-01 14:02:00,
2013-01-01 06:12:00,36.0,36.0,-100.00,North,-999,0.0,-999.0,98,0.00,,,-99.99,,2013-01-01 14:12:00,
2013-01-01 06:22:00,36.0,36.0,-100.00,North,-999,0.0,-999.0,98,0.00,,,-99.99,,2013-01-01 14:22:00,
2013-01-01 06:30:00,35.0,35.0,-100.00,North,-999,0.0,-999.0,99,0.00,,,-99.99,,2013-01-01 14:30:00,
2013-01-01 06:53:00,35.0,35.0,-100.00,North,-999,0.0,-999.0,99,0.00,,,-99.99,,2013-01-01 14:53:00,
2013-01-01 07:02:00,35.0,35.0,-100.00,North,-999,0.0,-999.0,99,0.00,,,-99.99,,2013-01-01 15:02:00,
2013-01-01 07:12:00,35.0,35.0,-100.00,North,-999,0.0,-999.0,99,0.00,,,-99.99,,2013-01-01 15:12:00,
2013-01-01 07:22:00,35.0,35.0,-100.00,North,-999,0.0,-999.0,99,0.00,,,-99.99,,2013-01-01 15:22:00,
2013-01-01 07:30:00,34.0,34.0,-100.00,South,190,0.0,-999.0,100,0.00,,,-99.99,,2013-01-01 15:30:00,
2013-01-01 07:53:00,34.0,34.0,-100.00,South,190,0.0,-999.0,100,0.00,,,-99.99,,2013-01-01 15:53:00,
2013-01-01 08:02:00,34.0,34.0,-100.00,South,190,0.0,-999.0,100,0.00,,,-99.99,,2013-01-01 16:02:00,
2013-01-01 08:12:00,34.0,34.0,-100.00,South,190,0.0,-999.0,100,0.00,,,-99.99,,2013-01-01 16:12:00,
2013-01-01 08:22:00,34.0,34.0,-100.00,South,190,0.0,-999.0,100,0.00,,,-99.99,,2013-01-01 16:22:00,
2013-01-01 08:30:00,34.0,34.0,-100.00,North,-999,0.0,-999.0,100,0.00,,,-99.99,,2013-01-01 16:30:00,
2013-01-01 08:53:00,34.0,34.0,-100.00,North,-999,0.0,-999.0,100,0.00,,,-99.99,,2013-01-01 16:53:00,
2013-01-01 09:02:00,34.0,34.0,-100.00,North,-999,0.0,-999.0,100,0.00,,,-99.99,,2013-01-01 17:02:00,
2013-01-01 09:12:00,34.0,34.0,-100.00,North,-999,0.0,-999.0,100,0.00,,,-99.99,,2013-01-01 17:12:00,
2013-01-01 09:22:00,34.0,34.0,-100.00,North,-999,0.0,-999.0,100,0.00,,,-99.99,,2013-01-01 17:22:00,
2013-01-01 09:30:00,38.0,37.0,-100.00,North,-999,0.0,-999.0,99,0.00,,,-99.99,,2013-01-01 17:30:00,
2013-01-01 09:53:00,38.0,37.0,-100.00,North,-999,0.0,-999.0,99,0.00,,,-99.99,,2013-01-01 17:53:00,
2013-01-01 10:03:00,38.0,37.0,-100.00,North,-999,0.0,-999.0,99,0.00,,,-99.99,,2013-01-01 18:03:00,
2013-01-01 10:12:00,38.0,37.0,-100.00,North,-999,0.0,-999.0,99,0.00,,,-99.99,,2013-01-01 18:12:00,
2013-01-01 10:22:00,38.0,37.0,-100.00,North,-999,0.0,-999.0,99,0.00,,,-99.99,,2013-01-01 18:22:00,
2013-01-01 10:30:00,41.0,39.0,-100.00,South,174,0.0,-999.0,94,0.00,,,-99.99,,2013-01-01 18:30:00,
2013-01-01 10:53:00,41.0,39.0,-100.00,South,174,0.0,-999.0,94,0.00,,,-99.99,,2013-01-01 18:53:00,
2013-01-01 11:02:00,41.0,39.0,-100.00,South,174,0.0,-999.0,94,0.00,,,-99.99,,2013-01-01 19:02:00,
2013-01-01 11:12:00,41.0,39.0,-100.00,South,174,0.0,-999.0,94,0.00,,,-99.99,,2013-01-01 19:12:00,
2013-01-01 11:22:00,41.0,39.0,-100.00,South,174,0.0,-999.0,94,0.00,,,-99.99,,2013-01-01 19:22:00,
2013-01-01 11:30:00,46.0,42.0,-100.00,SSE,156,0.0,-999.0,86,0.00,,,-99.99,,2013-01-01 19:30:00,
2013-01-01 11:52:00,46.0,42.0,-100.00,SSE,156,0.0,-999.0,86,0.00,,,-99.99,,2013-01-01 19:52:00,
2013-01-01 12:02:00,46.0,42.0,-100.00,SSE,156,0.0,-999.0,86,0.00,,,-99.99,,2013-01-01 20:02:00,
2013-01-01 12:12:00,46.0,42.0,-100.00,SSE,156,0.0,-999.0,86,0.00,,,-99.99,,2013-01-01 20:12:00,
2013-01-01 12:22:00,46.0,42.0,-100.00,SSE,156,0.0,-999.0,86,0.00,,,-99.99,,2013-01-01 20:22:00,
2013-01-01 12:30:00,50.0,44.0,-100.00,SSE,166,0.0,-999.0,77,0.00,,,-99.99,,2013-01-01 20:30:00,
2013-01-01 12:53:00,50.0,44.0,-100.00,SSE,166,0.0,-999.0,77,0.00,,,-99.99,,2013-01-01 20:53:00,
2013-01-01 13:03:00,50.0,44.0,-100.00,SSE,166,0.0,-999.0,77,0.00,,,-99.99,,2013-01-01 21:03:00,
2013-01-01 13:12:00,50.0,44.0,-100.00,SSE,166,0.0,-999.0,77,0.00,,,-99.99,,2013-01-01 21:12:00,
2013-01-01 13:22:00,50.0,44.0,-100.00,SSE,166,0.0,-999.0,77,0.00,,,-99.99,,2013-01-01 21:22:00,
2013-01-01 13:30:00,52.0,43.0,-100.00,South,181,0.0,-999.0,71,0.00,,,-99.99,,2013-01-01 21:30:00,
2013-01-01 13:53:00,52.0,43.0,-100.00,South,181,0.0,-999.0,71,0.00,,,-99.99,,2013-01-01 21:53:00,
2013-01-01 14:02:00,52.0,43.0,-100.00,South,181,0.0,-999.0,71,0.00,,,-99.99,,2013-01-01 22:02:00,
2013-01-01 14:12:00,52.0,43.0,-100.00,South,181,0.0,-999.0,71,0.00,,,-99.99,,2013-01-01 22:12:00,
2013-01-01 14:22:00,52.0,43.0,-100.00,South,181,0.0,-999.0,71,0.00,,,-99.99,,2013-01-01 22:22:00,
2013-01-01 14:30:00,52.0,44.0,-100.00,WSW,244,0.0,-999.0,74,0.00,,,-99.99,,2013-01-01 22:30:00,
2013-01-01 14:52:00,52.0,44.0,-100.00,WSW,244,0.0,-999.0,74,0.00,,,-99.99,,2013-01-01 22:52:00,
2013-01-01 15:02:00,52.0,44.0,-100.00,WSW,244,0.0,-999.0,74,0.00,,,-99.99,,2013-01-01 23:02:00,
2013-01-01 15:12:00,52.0,44.0,-100.00,WSW,244,0.0,-999.0,74,0.00,,,-99.99,,2013-01-01 23:12:00,
2013-01-01 15:22:00,52.0,44.0,-100.00,WSW,244,0.0,-999.0,74,0.00,,,-99.99,,2013-01-01 23:22:00,
2013-01-01 15:30:00,48.0,42.0,-100.00,West,265,0.0,-999.0,79,0.00,,,-99.99,,2013-01-01 23:30:00,
2013-01-01 15:53:00,48.0,42.0,-100.00,West,265,0.0,-999.0,79,0.00,,,-99.99,,2013-01-01 23:53:00,
2013-01-01 16:02:00,48.0,42.0,-100.00,West,265,0.0,-999.0,79,0.00,,,-99.99,,2013-01-02 00:02:00,
2013-01-01 16:12:00,48.0,42.0,-100.00,West,265,0.0,-999.0,79,0.00,,,-99.99,,2013-01-02 00:12:00,
2013-01-01 16:22:00,48.0,42.0,-100.00,West,265,0.0,-999.0,79,0.00,,,-99.99,,2013-01-02 00:22:00,
2013-01-01 16:30:00,45.0,42.0,-100.00,WSW,247,0.0,-999.0,90,0.00,,,-99.99,,2013-01-02 00:30:00,
2013-01-01 16:52:00,45.0,42.0,-100.00,WSW,247,0.0,-999.0,90,0.00,,,-99.99,,2013-01-02 00:52:00,
2013-01-01 17:02:00,45.0,42.0,-100.00,WSW,247,0.0,-999.0,90,0.00,,,-99.99,,2013-01-02 01:02:00,
2013-01-01 17:12:00,45.0,42.0,-100.00,WSW,247,0.0,-999.0,90,0.00,,,-99.99,,2013-01-02 01:12:00,
2013-01-01 17:22:00,45.0,42.0,-100.00,WSW,247,0.0,-999.0,90,0.00,,,-99.99,,2013-01-02 01:22:00,
2013-01-01 17:30:00,43.0,41.0,-100.00,SW,226,0.0,-999.0,94,0.00,,,-99.99,,2013-01-02 01:30:00,
2013-01-01 17:52:00,43.0,41.0,-100.00,SW,226,0.0,-999.0,94,0.00,,,-99.99,,2013-01-02 01:52:00,
2013-01-01 18:02:00,43.0,41.0,-100.00,SW,226,0.0,-999.0,94,0.00,,,-99.99,,2013-01-02 02:02:00,
2013-01-01 18:12:00,43.0,41.0,-100.00,SW,226,0.0,-999.0,94,0.00,,,-99.99,,2013-01-02 02:12:00,
2013-01-01 18:22:00,43.0,41.0,-100.00,SW,226,0.0,-999.0,94,0.00,,,-99.99,,2013-01-02 02:22:00,
2013-01-01 18:30:00,40.0,39.0,-100.00,North,-999,0.0,-999.0,96,0.00,,,-99.99,,2013-01-02 02:30:00,
2013-01-01 18:53:00,40.0,39.0,-100.00,North,-999,0.0,-999.0,96,0.00,,,-99.99,,2013-01-02 02:53:00,
2013-01-01 19:02:00,40.0,39.0,-100.00,North,-999,0.0,-999.0,96,0.00,,,-99.99,,2013-01-02 03:02:00,
2013-01-01 19:11:00,40.0,39.0,-100.00,North,-999,0.0,-999.0,96,0.00,,,-99.99,,2013-01-02 03:11:00,
2013-01-01 19:22:00,40.0,39.0,-100.00,North,-999,0.0,-999.0,96,0.00,,,-99.99,,2013-01-02 03:22:00,
2013-01-01 19:30:00,39.0,38.0,-100.00,North,-999,0.0,-999.0,97,0.00,,,-99.99,,2013-01-02 03:30:00,
2013-01-01 19:53:00,39.0,38.0,-100.00,North,-999,0.0,-999.0,97,0.00,,,-99.99,,2013-01-02 03:53:00,
2013-01-01 20:02:00,39.0,38.0,-100.00,North,-999,0.0,-999.0,97,0.00,,,-99.99,,2013-01-02 04:02:00,
2013-01-01 20:12:00,39.0,38.0,-100.00,North,-999,0.0,-999.0,97,0.00,,,-99.99,,2013-01-02 04:12:00,
2013-01-01 20:22:00,39.0,38.0,-100.00,North,-999,0.0,-999.0,97,0.00,,,-99.99,,2013-01-02 04:22:00,
2013-01-01 20:30:00,37.0,37.0,-100.00,North,-999,0.0,-999.0,98,0.00,,,-99.99,,2013-01-02 04:30:00,
2013-01-01 20:52:00,37.0,37.0,-100.00,North,-999,0.0,-999.0,98,0.00,,,-99.99,,2013-01-02 04:52:00,
2013-01-01 21:03:00,37.0,37.0,-100.00,North,-999,0.0,-999.0,98,0.00,,,-99.99,,2013-01-02 05:03:00,
2013-01-01 21:12:00,37.0,37.0,-100.00,North,-999,0.0,-999.0,98,0.00,,,-99.99,,2013-01-02 05:12:00,
2013-01-01 21:22:00,37.0,37.0,-100.00,North,-999,0.0,-999.0,98,0.00,,,-99.99,,2013-01-02 05:22:00,
2013-01-01 21:30:00,37.0,36.0,-100.00,North,-999,0.0,-999.0,98,0.00,,,-99.99,,2013-01-02 05:30:00,
2013-01-01 21:53:00,37.0,36.0,-100.00,North,-999,0.0,-999.0,98,0.00,,,-99.99,,2013-01-02 05:53:00,
2013-01-01 22:02:00,37.0,36.0,-100.00,North,-999,0.0,-999.0,98,0.00,,,-99.99,,2013-01-02 06:02:00,
2013-01-01 22:12:00,37.0,36.0,-100.00,North,-999,0.0,-999.0,98,0.00,,,-99.99,,2013-01-02 06:12:00,
2013-01-01 22:22:00,37.0,36.0,-100.00,North,-999,0.0,-999.0,98,0.00,,,-99.99,,2013-01-02 06:22:00,
2013-01-01 22:30:00,36.0,35.0,-100.00,North,-999,0.0,-999.0,98,0.00,,,-99.99,,2013-01-02 06:30:00,
2013-01-01 22:53:00,36.0,35.0,-100.00,North,-999,0.0,-999.0,98,0.00,,,-99.99,,2013-01-02 06:53:00,
2013-01-01 23:02:00,36.0,35.0,-100.00,North,-999,0.0,-999.0,98,0.00,,,-99.99,,2013-01-02 07:02:00,
2013-01-01 23:12:00,36.0,35.0,-100.00,North,-999,0.0,-999.0,98,0.00,,,-99.99,,2013-01-02 07:12:00,
2013-01-01 23:22:00,36.0,35.0,-100.00,North,-999,0.0,-999.0,98,0.00,,,-99.99,,2013-01-02 07:22:00,
2013-01-01 23:30:00,36.0,35.0,-100.00,North,-999,0.0,-999.0,98,0.00,,,-99.99,,2013-01-02 07:30:00,
2013-01-01 23:52:00,36.0,35.0,-100.00,North,-999,0.0,-999.0,98,0.00,,,-99.99,,2013-01-02 07:52:00,